Lyndon Station, Wisconsin
Current Conditions -  °F | °C
As of 9:35 AM on Saturday 25 Oct 2014 (Local Time) from KC35 Reporting Station
Clear Clear  
Wind Chill: 56°   Ceiling: Unl
Heat Index: 56°   Visibility: 10mi
Dew Point: 43°   Wind: 7mph
Humidity: 61%   Direction: 290°WNW
Pressure: 29.97"   Gusts: NA
Location:  43.71°N, 89.9°W
Report Text: KC35 251435Z AUTO 29006KT 10SM CLR 14/06 A2997 RMK AO2 T01360063
Loading
Personal Weather Stations






























Interactive Weather Map
Tropical Storm Tracking
New forecast layout! Learn more

10-Day Weather Forecast

Advertisements
Track Severe Weather on mobile